sensor_id;sensor_type;location;lat;lon;timestamp;P1;durP1;ratioP1;P2;durP2;ratioP2
10511;SDS011;5304;48.604;2.096;2023-12-20T04:25:35;6.27;;;1.27;;
10511;SDS011;5304;48.604;2.096;2023-12-20T04:28:19;8.30;;;1.70;;
10511;SDS011;5304;48.604;2.096;2023-12-20T04:31:03;4.77;;;1.70;;
10511;SDS011;5304;48.604;2.096;2023-12-20T04:33:48;5.83;;;1.70;;
10511;SDS011;5304;48.604;2.096;2023-12-20T04:36:32;3.63;;;1.40;;
10511;SDS011;5304;48.604;2.096;2023-12-20T04:39:17;3.03;;;1.43;;
10511;SDS011;5304;48.604;2.096;2023-12-20T04:42:01;5.00;;;2.40;;
10511;SDS011;5304;48.604;2.096;2023-12-20T04:44:46;4.37;;;2.40;;
10511;SDS011;5304;48.604;2.096;2023-12-20T04:47:30;3.33;;;1.60;;
10511;SDS011;5304;48.604;2.096;2023-12-20T04:50:14;6.17;;;1.80;;
10511;SDS011;5304;48.604;2.096;2023-12-20T04:52:59;7.03;;;2.10;;
10511;SDS011;5304;48.604;2.096;2023-12-20T04:55:43;8.10;;;2.33;;
10511;SDS011;5304;48.604;2.096;2023-12-20T04:58:27;4.80;;;2.03;;
10511;SDS011;5304;48.604;2.096;2023-12-20T05:01:12;8.80;;;2.00;;
10511;SDS011;5304;48.604;2.096;2023-12-20T05:03:56;3.77;;;1.97;;
10511;SDS011;5304;48.604;2.096;2023-12-20T05:06:41;8.07;;;2.33;;
10511;SDS011;5304;48.604;2.096;2023-12-20T05:09:25;10.80;;;2.33;;
10511;SDS011;5304;48.604;2.096;2023-12-20T05:12:09;11.43;;;2.73;;
10511;SDS011;5304;48.604;2.096;2023-12-20T05:14:54;6.47;;;2.70;;
10511;SDS011;5304;48.604;2.096;2023-12-20T05:17:38;5.97;;;2.13;;
10511;SDS011;5304;48.604;2.096;2023-12-20T05:20:22;5.80;;;2.67;;
10511;SDS011;5304;48.604;2.096;2023-12-20T05:23:07;7.70;;;2.30;;
10511;SDS011;5304;48.604;2.096;2023-12-20T05:25:51;5.60;;;2.30;;
10511;SDS011;5304;48.604;2.096;2023-12-20T05:28:35;7.63;;;1.90;;
10511;SDS011;5304;48.604;2.096;2023-12-20T05:31:19;6.50;;;1.80;;
10511;SDS011;5304;48.604;2.096;2023-12-20T05:34:03;8.47;;;1.50;;
10511;SDS011;5304;48.604;2.096;2023-12-20T05:36:48;8.30;;;2.20;;
10511;SDS011;5304;48.604;2.096;2023-12-20T05:39:32;19.50;;;2.80;;
10511;SDS011;5304;48.604;2.096;2023-12-20T05:42:17;8.00;;;1.83;;
10511;SDS011;5304;48.604;2.096;2023-12-20T05:45:01;7.60;;;1.60;;
10511;SDS011;5304;48.604;2.096;2023-12-20T05:47:45;6.80;;;2.07;;
10511;SDS011;5304;48.604;2.096;2023-12-20T05:50:29;6.97;;;2.03;;
10511;SDS011;5304;48.604;2.096;2023-12-20T05:53:14;12.70;;;2.13;;
10511;SDS011;5304;48.604;2.096;2023-12-20T05:55:58;12.90;;;2.60;;
10511;SDS011;5304;48.604;2.096;2023-12-20T05:58:42;9.53;;;2.23;;
10511;SDS011;5304;48.604;2.096;2023-12-20T06:01:27;6.60;;;1.73;;
10511;SDS011;5304;48.604;2.096;2023-12-20T06:04:11;6.80;;;1.67;;
10511;SDS011;5304;48.604;2.096;2023-12-20T06:06:55;1.97;;;1.30;;
10511;SDS011;5304;48.604;2.096;2023-12-20T06:09:39;7.70;;;2.00;;
10511;SDS011;5304;48.604;2.096;2023-12-20T06:12:24;8.33;;;2.73;;
10511;SDS011;5304;48.604;2.096;2023-12-20T06:15:10;4.73;;;1.97;;
10511;SDS011;5304;48.604;2.096;2023-12-20T06:17:54;6.13;;;2.13;;
10511;SDS011;5304;48.604;2.096;2023-12-20T06:20:38;3.90;;;2.20;;
10511;SDS011;5304;48.604;2.096;2023-12-20T06:23:23;6.83;;;2.30;;
10511;SDS011;5304;48.604;2.096;2023-12-20T06:26:07;5.33;;;1.97;;
10511;SDS011;5304;48.604;2.096;2023-12-20T06:28:51;7.17;;;1.97;;
10511;SDS011;5304;48.604;2.096;2023-12-20T06:31:35;8.87;;;2.60;;
10511;SDS011;5304;48.604;2.096;2023-12-20T06:34:20;7.17;;;3.20;;
10511;SDS011;5304;48.604;2.096;2023-12-20T06:37:04;7.23;;;3.67;;
10511;SDS011;5304;48.604;2.096;2023-12-20T06:39:48;15.70;;;5.50;;
10511;SDS011;5304;48.604;2.096;2023-12-20T06:42:33;13.10;;;4.10;;
10511;SDS011;5304;48.604;2.096;2023-12-20T06:45:17;8.47;;;4.07;;
10511;SDS011;5304;48.604;2.096;2023-12-20T06:48:01;10.97;;;3.03;;
10511;SDS011;5304;48.604;2.096;2023-12-20T06:50:46;7.10;;;3.23;;
10511;SDS011;5304;48.604;2.096;2023-12-20T06:53:30;17.20;;;4.00;;
10511;SDS011;5304;48.604;2.096;2023-12-20T06:56:14;9.30;;;3.90;;
10511;SDS011;5304;48.604;2.096;2023-12-20T06:59:00;9.17;;;3.83;;
10511;SDS011;5304;48.604;2.096;2023-12-20T07:01:47;11.90;;;4.30;;
10511;SDS011;5304;48.604;2.096;2023-12-20T07:04:32;9.37;;;3.57;;
10511;SDS011;5304;48.604;2.096;2023-12-20T07:07:16;11.50;;;4.27;;
10511;SDS011;5304;48.604;2.096;2023-12-20T07:10:01;7.43;;;3.40;;
10511;SDS011;5304;48.604;2.096;2023-12-20T07:12:45;5.80;;;3.63;;
10511;SDS011;5304;48.604;2.096;2023-12-20T07:15:29;8.33;;;3.40;;
10511;SDS011;5304;48.604;2.096;2023-12-20T07:18:14;8.23;;;3.30;;
10511;SDS011;5304;48.604;2.096;2023-12-20T07:20:58;5.27;;;2.93;;
10511;SDS011;5304;48.604;2.096;2023-12-20T07:23:42;6.70;;;3.33;;
10511;SDS011;5304;48.604;2.096;2023-12-20T07:26:26;10.47;;;3.83;;
10511;SDS011;5304;48.604;2.096;2023-12-20T07:29:10;4.67;;;3.20;;
10511;SDS011;5304;48.604;2.096;2023-12-20T07:31:54;6.30;;;2.80;;
10511;SDS011;5304;48.604;2.096;2023-12-20T07:34:39;5.27;;;2.43;;
10511;SDS011;5304;48.604;2.096;2023-12-20T07:37:23;5.63;;;1.73;;
10511;SDS011;5304;48.604;2.096;2023-12-20T07:40:07;12.60;;;2.40;;
10511;SDS011;5304;48.604;2.096;2023-12-20T07:42:52;7.23;;;1.87;;
10511;SDS011;5304;48.604;2.096;2023-12-20T07:45:36;5.73;;;1.90;;
10511;SDS011;5304;48.604;2.096;2023-12-20T07:48:21;5.23;;;1.80;;
10511;SDS011;5304;48.604;2.096;2023-12-20T07:51:05;4.53;;;1.50;;
10511;SDS011;5304;48.604;2.096;2023-12-20T07:53:51;8.73;;;1.50;;
10511;SDS011;5304;48.604;2.096;2023-12-20T07:56:36;6.60;;;1.70;;
10511;SDS011;5304;48.604;2.096;2023-12-20T07:59:20;10.87;;;2.43;;
10511;SDS011;5304;48.604;2.096;2023-12-20T08:02:04;9.20;;;2.00;;
10511;SDS011;5304;48.604;2.096;2023-12-20T08:04:49;8.67;;;1.80;;
10511;SDS011;5304;48.604;2.096;2023-12-20T08:07:33;10.00;;;1.90;;
10511;SDS011;5304;48.604;2.096;2023-12-20T08:10:18;6.83;;;1.63;;
10511;SDS011;5304;48.604;2.096;2023-12-20T08:13:03;4.87;;;2.10;;
10511;SDS011;5304;48.604;2.096;2023-12-20T08:15:47;10.70;;;3.10;;
10511;SDS011;5304;48.604;2.096;2023-12-20T08:18:31;15.50;;;5.00;;
10511;SDS011;5304;48.604;2.096;2023-12-20T08:21:16;11.53;;;4.23;;
10511;SDS011;5304;48.604;2.096;2023-12-20T08:24:00;9.73;;;4.40;;
10511;SDS011;5304;48.604;2.096;2023-12-20T08:26:46;7.43;;;3.33;;
10511;SDS011;5304;48.604;2.096;2023-12-20T08:29:30;7.70;;;2.60;;
10511;SDS011;5304;48.604;2.096;2023-12-20T08:32:14;4.90;;;2.10;;
10511;SDS011;5304;48.604;2.096;2023-12-20T08:35:00;5.80;;;2.03;;
10511;SDS011;5304;48.604;2.096;2023-12-20T08:37:44;8.37;;;2.20;;
10511;SDS011;5304;48.604;2.096;2023-12-20T08:40:28;8.93;;;2.40;;
10511;SDS011;5304;48.604;2.096;2023-12-20T08:43:13;5.47;;;2.27;;
10511;SDS011;5304;48.604;2.096;2023-12-20T08:45:57;6.77;;;2.80;;
10511;SDS011;5304;48.604;2.096;2023-12-20T08:48:42;11.77;;;3.33;;
10511;SDS011;5304;48.604;2.096;2023-12-20T08:51:26;14.40;;;3.17;;
10511;SDS011;5304;48.604;2.096;2023-12-20T08:54:11;9.80;;;3.10;;
10511;SDS011;5304;48.604;2.096;2023-12-20T08:56:56;9.60;;;2.80;;
10511;SDS011;5304;48.604;2.096;2023-12-20T08:59:41;6.57;;;2.63;;
10511;SDS011;5304;48.604;2.096;2023-12-20T09:02:25;12.70;;;2.33;;
10511;SDS011;5304;48.604;2.096;2023-12-20T09:05:09;8.57;;;2.27;;
10511;SDS011;5304;48.604;2.096;2023-12-20T09:07:53;10.53;;;2.33;;
10511;SDS011;5304;48.604;2.096;2023-12-20T09:10:38;9.43;;;2.47;;
10511;SDS011;5304;48.604;2.096;2023-12-20T09:13:22;9.57;;;2.73;;
10511;SDS011;5304;48.604;2.096;2023-12-20T09:16:11;13.70;;;5.53;;
10511;SDS011;5304;48.604;2.096;2023-12-20T09:18:57;13.53;;;3.87;;
10511;SDS011;5304;48.604;2.096;2023-12-20T09:21:41;8.43;;;2.30;;
10511;SDS011;5304;48.604;2.096;2023-12-20T09:24:25;8.23;;;2.40;;
10511;SDS011;5304;48.604;2.096;2023-12-20T09:29:35;12.47;;;3.97;;
10511;SDS011;5304;48.604;2.096;2023-12-20T09:32:19;13.47;;;4.17;;
10511;SDS011;5304;48.604;2.096;2023-12-20T09:35:04;13.33;;;4.27;;
10511;SDS011;5304;48.604;2.096;2023-12-20T09:37:49;9.73;;;2.53;;
10511;SDS011;5304;48.604;2.096;2023-12-20T09:40:34;9.90;;;2.77;;
10511;SDS011;5304;48.604;2.096;2023-12-20T09:43:20;6.73;;;2.20;;
10511;SDS011;5304;48.604;2.096;2023-12-20T09:46:07;12.13;;;3.03;;
10511;SDS011;5304;48.604;2.096;2023-12-20T09:48:55;10.07;;;2.43;;
10511;SDS011;5304;48.604;2.096;2023-12-20T09:51:40;7.17;;;2.70;;
10511;SDS011;5304;48.604;2.096;2023-12-20T09:54:26;8.20;;;2.20;;
10511;SDS011;5304;48.604;2.096;2023-12-20T09:57:12;8.97;;;2.40;;
10511;SDS011;5304;48.604;2.096;2023-12-20T09:59:56;14.47;;;2.90;;
10511;SDS011;5304;48.604;2.096;2023-12-20T10:05:40;13.87;;;2.37;;
10511;SDS011;5304;48.604;2.096;2023-12-20T10:08:28;9.47;;;2.10;;
10511;SDS011;5304;48.604;2.096;2023-12-20T10:11:13;9.13;;;2.90;;
10511;SDS011;5304;48.604;2.096;2023-12-20T10:14:00;5.37;;;2.23;;
10511;SDS011;5304;48.604;2.096;2023-12-20T10:16:45;11.43;;;2.50;;
10511;SDS011;5304;48.604;2.096;2023-12-20T10:19:29;14.17;;;2.17;;
10511;SDS011;5304;48.604;2.096;2023-12-20T10:22:14;6.53;;;2.40;;
10511;SDS011;5304;48.604;2.096;2023-12-20T10:24:59;7.00;;;2.17;;
10511;SDS011;5304;48.604;2.096;2023-12-20T10:27:43;9.87;;;2.23;;
10511;SDS011;5304;48.604;2.096;2023-12-20T10:30:27;6.13;;;1.80;;
10511;SDS011;5304;48.604;2.096;2023-12-20T10:33:12;8.70;;;2.57;;
10511;SDS011;5304;48.604;2.096;2023-12-20T10:35:56;12.57;;;2.30;;
10511;SDS011;5304;48.604;2.096;2023-12-20T10:38:40;12.17;;;2.60;;
10511;SDS011;5304;48.604;2.096;2023-12-20T10:41:26;10.43;;;2.87;;
10511;SDS011;5304;48.604;2.096;2023-12-20T10:44:12;12.23;;;2.70;;
10511;SDS011;5304;48.604;2.096;2023-12-20T10:46:57;7.83;;;2.77;;
10511;SDS011;5304;48.604;2.096;2023-12-20T10:49:42;9.97;;;2.57;;
10511;SDS011;5304;48.604;2.096;2023-12-20T10:52:28;13.20;;;2.77;;
10511;SDS011;5304;48.604;2.096;2023-12-20T10:55:16;17.97;;;3.23;;
10511;SDS011;5304;48.604;2.096;2023-12-20T10:58:01;11.07;;;3.07;;
10511;SDS011;5304;48.604;2.096;2023-12-20T11:00:50;5.33;;;2.10;;
10511;SDS011;5304;48.604;2.096;2023-12-20T11:03:46;7.30;;;2.77;;
10511;SDS011;5304;48.604;2.096;2023-12-20T11:06:38;8.10;;;2.77;;
10511;SDS011;5304;48.604;2.096;2023-12-20T11:09:28;11.70;;;2.27;;
10511;SDS011;5304;48.604;2.096;2023-12-20T11:12:25;11.70;;;2.30;;
10511;SDS011;5304;48.604;2.096;2023-12-20T11:15:21;11.07;;;2.67;;
10511;SDS011;5304;48.604;2.096;2023-12-20T11:18:05;9.43;;;2.53;;
10511;SDS011;5304;48.604;2.096;2023-12-20T11:20:50;6.73;;;2.27;;
10511;SDS011;5304;48.604;2.096;2023-12-20T11:23:34;8.63;;;2.40;;
10511;SDS011;5304;48.604;2.096;2023-12-20T11:26:22;9.00;;;2.43;;
10511;SDS011;5304;48.604;2.096;2023-12-20T11:29:31;6.07;;;2.50;;
10511;SDS011;5304;48.604;2.096;2023-12-20T11:37:54;7.60;;;2.80;;
10511;SDS011;5304;48.604;2.096;2023-12-20T11:40:42;9.57;;;2.43;;
10511;SDS011;5304;48.604;2.096;2023-12-20T11:43:37;9.77;;;2.27;;
10511;SDS011;5304;48.604;2.096;2023-12-20T11:46:22;12.60;;;2.57;;
10511;SDS011;5304;48.604;2.096;2023-12-20T11:49:07;7.30;;;2.60;;
10511;SDS011;5304;48.604;2.096;2023-12-20T11:51:51;9.70;;;2.67;;
10511;SDS011;5304;48.604;2.096;2023-12-20T11:54:35;12.60;;;1.90;;
10511;SDS011;5304;48.604;2.096;2023-12-20T11:57:20;10.13;;;3.03;;
10511;SDS011;5304;48.604;2.096;2023-12-20T12:00:05;10.83;;;2.13;;
10511;SDS011;5304;48.604;2.096;2023-12-20T12:02:59;5.70;;;2.10;;
10511;SDS011;5304;48.604;2.096;2023-12-20T12:05:43;13.90;;;2.13;;
10511;SDS011;5304;48.604;2.096;2023-12-20T12:08:29;9.30;;;2.30;;
10511;SDS011;5304;48.604;2.096;2023-12-20T12:11:13;10.67;;;2.97;;
10511;SDS011;5304;48.604;2.096;2023-12-20T12:13:58;10.47;;;2.87;;
10511;SDS011;5304;48.604;2.096;2023-12-20T12:16:42;8.00;;;1.87;;
10511;SDS011;5304;48.604;2.096;2023-12-20T12:19:27;6.60;;;2.37;;
10511;SDS011;5304;48.604;2.096;2023-12-20T12:22:14;6.83;;;2.10;;
10511;SDS011;5304;48.604;2.096;2023-12-20T12:25:09;10.43;;;2.87;;
10511;SDS011;5304;48.604;2.096;2023-12-20T12:27:55;9.93;;;2.90;;
10511;SDS011;5304;48.604;2.096;2023-12-20T12:30:39;7.67;;;2.33;;
10511;SDS011;5304;48.604;2.096;2023-12-20T12:33:27;6.90;;;2.47;;
10511;SDS011;5304;48.604;2.096;2023-12-20T12:36:12;9.03;;;2.50;;
10511;SDS011;5304;48.604;2.096;2023-12-20T12:39:02;6.00;;;2.33;;
10511;SDS011;5304;48.604;2.096;2023-12-20T12:41:48;9.47;;;2.57;;
10511;SDS011;5304;48.604;2.096;2023-12-20T12:44:32;10.77;;;2.30;;
10511;SDS011;5304;48.604;2.096;2023-12-20T12:47:17;7.37;;;2.17;;
10511;SDS011;5304;48.604;2.096;2023-12-20T12:50:01;6.27;;;2.40;;
10511;SDS011;5304;48.604;2.096;2023-12-20T12:52:47;8.33;;;2.53;;
10511;SDS011;5304;48.604;2.096;2023-12-20T12:55:31;11.27;;;2.47;;
10511;SDS011;5304;48.604;2.096;2023-12-20T12:58:15;8.73;;;2.47;;
10511;SDS011;5304;48.604;2.096;2023-12-20T13:01:00;6.17;;;2.03;;
10511;SDS011;5304;48.604;2.096;2023-12-20T13:03:44;11.23;;;2.47;;
10511;SDS011;5304;48.604;2.096;2023-12-20T13:06:29;8.73;;;1.80;;
10511;SDS011;5304;48.604;2.096;2023-12-20T13:09:13;5.87;;;2.37;;
10511;SDS011;5304;48.604;2.096;2023-12-20T13:11:58;10.03;;;2.60;;
10511;SDS011;5304;48.604;2.096;2023-12-20T13:14:43;8.70;;;2.40;;
10511;SDS011;5304;48.604;2.096;2023-12-20T13:17:27;7.30;;;2.80;;
10511;SDS011;5304;48.604;2.096;2023-12-20T13:20:12;6.23;;;2.37;;
10511;SDS011;5304;48.604;2.096;2023-12-20T13:22:56;10.43;;;2.60;;
10511;SDS011;5304;48.604;2.096;2023-12-20T13:25:40;6.67;;;1.77;;
10511;SDS011;5304;48.604;2.096;2023-12-20T13:28:25;10.90;;;3.13;;
10511;SDS011;5304;48.604;2.096;2023-12-20T13:31:09;13.60;;;4.60;;
10511;SDS011;5304;48.604;2.096;2023-12-20T13:33:53;9.30;;;3.03;;
10511;SDS011;5304;48.604;2.096;2023-12-20T13:36:37;10.43;;;2.37;;
10511;SDS011;5304;48.604;2.096;2023-12-20T13:39:22;10.70;;;3.10;;
10511;SDS011;5304;48.604;2.096;2023-12-20T13:42:06;12.43;;;3.17;;
10511;SDS011;5304;48.604;2.096;2023-12-20T13:44:51;15.57;;;3.07;;
10511;SDS011;5304;48.604;2.096;2023-12-20T13:47:35;13.40;;;3.00;;
10511;SDS011;5304;48.604;2.096;2023-12-20T13:50:20;16.77;;;3.40;;
10511;SDS011;5304;48.604;2.096;2023-12-20T13:53:04;11.60;;;3.27;;
10511;SDS011;5304;48.604;2.096;2023-12-20T13:55:48;8.20;;;2.83;;
10511;SDS011;5304;48.604;2.096;2023-12-20T13:58:33;13.37;;;2.73;;
10511;SDS011;5304;48.604;2.096;2023-12-20T14:01:18;13.00;;;2.70;;
10511;SDS011;5304;48.604;2.096;2023-12-20T14:04:02;9.47;;;2.90;;
10511;SDS011;5304;48.604;2.096;2023-12-20T14:06:49;9.30;;;2.63;;
10511;SDS011;5304;48.604;2.096;2023-12-20T14:09:33;6.63;;;2.93;;
10511;SDS011;5304;48.604;2.096;2023-12-20T14:12:17;7.93;;;2.80;;
10511;SDS011;5304;48.604;2.096;2023-12-20T14:15:02;14.13;;;2.87;;
10511;SDS011;5304;48.604;2.096;2023-12-20T14:17:46;8.73;;;2.53;;
10511;SDS011;5304;48.604;2.096;2023-12-20T14:20:30;9.63;;;2.90;;
10511;SDS011;5304;48.604;2.096;2023-12-20T14:23:15;7.93;;;3.00;;
10511;SDS011;5304;48.604;2.096;2023-12-20T14:26:00;10.57;;;2.87;;
10511;SDS011;5304;48.604;2.096;2023-12-20T14:28:45;11.97;;;2.80;;
10511;SDS011;5304;48.604;2.096;2023-12-20T14:31:29;9.23;;;3.33;;
10511;SDS011;5304;48.604;2.096;2023-12-20T14:34:14;15.33;;;3.23;;
10511;SDS011;5304;48.604;2.096;2023-12-20T14:36:58;11.83;;;3.17;;
10511;SDS011;5304;48.604;2.096;2023-12-20T14:39:42;12.00;;;3.17;;
10511;SDS011;5304;48.604;2.096;2023-12-20T14:42:26;6.97;;;2.60;;
10511;SDS011;5304;48.604;2.096;2023-12-20T14:45:11;6.80;;;2.30;;
10511;SDS011;5304;48.604;2.096;2023-12-20T14:47:57;7.37;;;2.30;;
10511;SDS011;5304;48.604;2.096;2023-12-20T14:50:42;3.50;;;1.53;;
10511;SDS011;5304;48.604;2.096;2023-12-20T14:53:26;7.23;;;2.00;;
10511;SDS011;5304;48.604;2.096;2023-12-20T14:56:11;9.03;;;2.10;;
10511;SDS011;5304;48.604;2.096;2023-12-20T14:58:55;7.80;;;2.67;;
10511;SDS011;5304;48.604;2.096;2023-12-20T15:01:40;8.30;;;2.20;;
10511;SDS011;5304;48.604;2.096;2023-12-20T15:04:24;7.60;;;2.17;;
10511;SDS011;5304;48.604;2.096;2023-12-20T15:07:12;5.77;;;1.93;;
10511;SDS011;5304;48.604;2.096;2023-12-20T15:09:56;15.00;;;3.47;;
10511;SDS011;5304;48.604;2.096;2023-12-20T15:12:41;6.90;;;2.07;;
10511;SDS011;5304;48.604;2.096;2023-12-20T15:15:25;7.77;;;2.20;;
10511;SDS011;5304;48.604;2.096;2023-12-20T15:18:11;5.63;;;2.23;;
10511;SDS011;5304;48.604;2.096;2023-12-20T15:20:55;5.73;;;1.77;;
10511;SDS011;5304;48.604;2.096;2023-12-20T15:23:40;7.23;;;2.07;;
10511;SDS011;5304;48.604;2.096;2023-12-20T15:26:27;9.87;;;2.20;;
10511;SDS011;5304;48.604;2.096;2023-12-20T15:29:13;4.93;;;1.53;;
10511;SDS011;5304;48.604;2.096;2023-12-20T15:31:58;5.30;;;1.67;;
10511;SDS011;5304;48.604;2.096;2023-12-20T15:34:43;6.70;;;1.60;;
10511;SDS011;5304;48.604;2.096;2023-12-20T15:37:27;5.47;;;1.97;;
10511;SDS011;5304;48.604;2.096;2023-12-20T15:40:11;5.07;;;1.70;;
10511;SDS011;5304;48.604;2.096;2023-12-20T15:42:56;7.00;;;2.07;;
10511;SDS011;5304;48.604;2.096;2023-12-20T15:45:41;10.33;;;2.30;;
10511;SDS011;5304;48.604;2.096;2023-12-20T15:48:25;4.47;;;1.83;;
10511;SDS011;5304;48.604;2.096;2023-12-20T15:51:13;7.03;;;2.33;;
10511;SDS011;5304;48.604;2.096;2023-12-20T15:53:58;5.27;;;2.03;;
10511;SDS011;5304;48.604;2.096;2023-12-20T15:56:47;9.33;;;2.20;;
10511;SDS011;5304;48.604;2.096;2023-12-20T15:59:31;6.77;;;3.20;;
10511;SDS011;5304;48.604;2.096;2023-12-20T16:02:15;9.87;;;2.47;;
10511;SDS011;5304;48.604;2.096;2023-12-20T16:05:00;7.07;;;2.13;;
10511;SDS011;5304;48.604;2.096;2023-12-20T16:07:46;4.63;;;2.10;;
10511;SDS011;5304;48.604;2.096;2023-12-20T16:10:30;3.70;;;2.27;;
10511;SDS011;5304;48.604;2.096;2023-12-20T16:13:14;6.70;;;2.70;;
10511;SDS011;5304;48.604;2.096;2023-12-20T16:16:02;9.23;;;2.30;;
10511;SDS011;5304;48.604;2.096;2023-12-20T16:18:48;5.83;;;1.97;;
10511;SDS011;5304;48.604;2.096;2023-12-20T16:21:32;6.60;;;2.00;;
10511;SDS011;5304;48.604;2.096;2023-12-20T16:24:16;5.30;;;2.37;;
10511;SDS011;5304;48.604;2.096;2023-12-20T16:27:00;6.67;;;2.00;;
10511;SDS011;5304;48.604;2.096;2023-12-20T16:29:44;4.93;;;1.93;;
10511;SDS011;5304;48.604;2.096;2023-12-20T16:32:29;4.97;;;2.07;;
10511;SDS011;5304;48.604;2.096;2023-12-20T16:35:13;4.23;;;2.10;;
10511;SDS011;5304;48.604;2.096;2023-12-20T16:37:57;9.00;;;2.23;;
10511;SDS011;5304;48.604;2.096;2023-12-20T16:40:42;5.93;;;2.53;;
10511;SDS011;5304;48.604;2.096;2023-12-20T16:43:28;8.30;;;2.37;;
10511;SDS011;5304;48.604;2.096;2023-12-20T16:46:12;11.03;;;2.77;;
10511;SDS011;5304;48.604;2.096;2023-12-20T16:48:57;7.70;;;2.73;;
10511;SDS011;5304;48.604;2.096;2023-12-20T16:51:41;5.23;;;2.00;;
10511;SDS011;5304;48.604;2.096;2023-12-20T16:54:26;7.27;;;2.47;;
10511;SDS011;5304;48.604;2.096;2023-12-20T16:57:10;7.50;;;2.87;;
10511;SDS011;5304;48.604;2.096;2023-12-20T16:59:54;9.57;;;2.40;;
10511;SDS011;5304;48.604;2.096;2023-12-20T17:02:39;6.20;;;2.47;;
10511;SDS011;5304;48.604;2.096;2023-12-20T17:05:23;5.60;;;2.33;;
10511;SDS011;5304;48.604;2.096;2023-12-20T17:08:07;7.27;;;2.50;;
10511;SDS011;5304;48.604;2.096;2023-12-20T17:10:52;4.77;;;1.90;;
10511;SDS011;5304;48.604;2.096;2023-12-20T17:13:36;6.77;;;1.93;;
10511;SDS011;5304;48.604;2.096;2023-12-20T17:16:21;6.77;;;2.50;;
10511;SDS011;5304;48.604;2.096;2023-12-20T17:19:05;6.20;;;2.63;;
10511;SDS011;5304;48.604;2.096;2023-12-20T17:21:49;6.63;;;2.20;;
10511;SDS011;5304;48.604;2.096;2023-12-20T17:24:37;8.27;;;2.73;;
10511;SDS011;5304;48.604;2.096;2023-12-20T17:27:21;9.07;;;2.77;;
10511;SDS011;5304;48.604;2.096;2023-12-20T17:30:06;3.77;;;2.60;;
10511;SDS011;5304;48.604;2.096;2023-12-20T17:33:07;6.80;;;2.90;;
10511;SDS011;5304;48.604;2.096;2023-12-20T17:35:51;7.47;;;2.23;;
10511;SDS011;5304;48.604;2.096;2023-12-20T17:38:36;8.03;;;3.57;;
10511;SDS011;5304;48.604;2.096;2023-12-20T17:41:22;7.70;;;2.10;;
10511;SDS011;5304;48.604;2.096;2023-12-20T17:44:06;9.73;;;2.87;;
10511;SDS011;5304;48.604;2.096;2023-12-20T17:46:51;4.23;;;1.90;;
10511;SDS011;5304;48.604;2.096;2023-12-20T17:49:35;12.57;;;2.47;;
10511;SDS011;5304;48.604;2.096;2023-12-20T17:52:19;4.53;;;2.17;;
10511;SDS011;5304;48.604;2.096;2023-12-20T17:55:04;5.37;;;2.63;;
10511;SDS011;5304;48.604;2.096;2023-12-20T17:57:48;4.30;;;2.10;;
10511;SDS011;5304;48.604;2.096;2023-12-20T18:00:33;5.53;;;2.83;;
10511;SDS011;5304;48.604;2.096;2023-12-20T18:03:18;6.90;;;2.40;;
10511;SDS011;5304;48.604;2.096;2023-12-20T18:06:03;10.53;;;3.10;;
10511;SDS011;5304;48.604;2.096;2023-12-20T18:08:48;8.17;;;2.23;;
10511;SDS011;5304;48.604;2.096;2023-12-20T18:11:33;9.40;;;2.50;;
10511;SDS011;5304;48.604;2.096;2023-12-20T18:14:17;6.67;;;3.27;;
10511;SDS011;5304;48.604;2.096;2023-12-20T18:17:02;8.07;;;3.00;;
10511;SDS011;5304;48.604;2.096;2023-12-20T18:19:46;8.43;;;3.13;;
10511;SDS011;5304;48.604;2.096;2023-12-20T18:22:31;8.23;;;2.70;;
10511;SDS011;5304;48.604;2.096;2023-12-20T18:25:15;5.23;;;2.60;;
10511;SDS011;5304;48.604;2.096;2023-12-20T18:27:59;5.27;;;2.60;;
10511;SDS011;5304;48.604;2.096;2023-12-20T18:30:43;8.37;;;2.87;;
10511;SDS011;5304;48.604;2.096;2023-12-20T18:33:28;7.63;;;3.10;;
10511;SDS011;5304;48.604;2.096;2023-12-20T18:36:17;6.67;;;2.70;;
10511;SDS011;5304;48.604;2.096;2023-12-20T18:39:03;5.53;;;2.70;;
10511;SDS011;5304;48.604;2.096;2023-12-20T18:41:48;5.97;;;2.80;;
10511;SDS011;5304;48.604;2.096;2023-12-20T18:44:33;8.43;;;2.70;;
10511;SDS011;5304;48.604;2.096;2023-12-20T18:47:17;5.90;;;2.23;;
10511;SDS011;5304;48.604;2.096;2023-12-20T18:50:02;8.93;;;2.87;;
10511;SDS011;5304;48.604;2.096;2023-12-20T18:52:51;6.63;;;3.00;;
10511;SDS011;5304;48.604;2.096;2023-12-20T18:55:35;8.13;;;2.37;;
10511;SDS011;5304;48.604;2.096;2023-12-20T18:58:19;3.00;;;2.20;;
10511;SDS011;5304;48.604;2.096;2023-12-20T19:01:04;8.87;;;3.27;;
10511;SDS011;5304;48.604;2.096;2023-12-20T19:03:48;4.57;;;1.87;;
10511;SDS011;5304;48.604;2.096;2023-12-20T19:06:32;3.67;;;2.13;;
10511;SDS011;5304;48.604;2.096;2023-12-20T19:09:16;3.47;;;2.17;;
10511;SDS011;5304;48.604;2.096;2023-12-20T19:12:01;6.43;;;2.47;;
10511;SDS011;5304;48.604;2.096;2023-12-20T19:14:45;3.50;;;2.20;;
10511;SDS011;5304;48.604;2.096;2023-12-20T19:17:29;3.47;;;1.80;;
10511;SDS011;5304;48.604;2.096;2023-12-20T19:20:13;5.00;;;1.93;;
10511;SDS011;5304;48.604;2.096;2023-12-20T19:22:57;3.97;;;2.10;;
10511;SDS011;5304;48.604;2.096;2023-12-20T19:25:42;8.70;;;2.60;;
10511;SDS011;5304;48.604;2.096;2023-12-20T19:28:26;6.83;;;2.60;;
10511;SDS011;5304;48.604;2.096;2023-12-20T19:31:10;4.33;;;2.30;;
10511;SDS011;5304;48.604;2.096;2023-12-20T19:33:55;3.60;;;2.03;;
10511;SDS011;5304;48.604;2.096;2023-12-20T19:36:39;6.43;;;2.10;;
10511;SDS011;5304;48.604;2.096;2023-12-20T19:39:24;10.10;;;2.70;;
10511;SDS011;5304;48.604;2.096;2023-12-20T19:42:08;8.03;;;3.00;;
10511;SDS011;5304;48.604;2.096;2023-12-20T19:44:52;9.00;;;2.60;;
10511;SDS011;5304;48.604;2.096;2023-12-20T19:47:36;6.67;;;2.37;;
10511;SDS011;5304;48.604;2.096;2023-12-20T19:50:20;4.43;;;2.90;;
10511;SDS011;5304;48.604;2.096;2023-12-20T19:53:05;6.87;;;3.00;;
10511;SDS011;5304;48.604;2.096;2023-12-20T19:55:49;7.07;;;2.93;;
10511;SDS011;5304;48.604;2.096;2023-12-20T19:58:33;10.17;;;3.03;;
10511;SDS011;5304;48.604;2.096;2023-12-20T20:01:18;7.10;;;2.90;;
10511;SDS011;5304;48.604;2.096;2023-12-20T20:04:02;4.30;;;2.57;;
10511;SDS011;5304;48.604;2.096;2023-12-20T20:06:49;7.70;;;2.63;;
10511;SDS011;5304;48.604;2.096;2023-12-20T20:09:35;4.90;;;2.10;;
10511;SDS011;5304;48.604;2.096;2023-12-20T20:12:20;4.83;;;2.37;;
10511;SDS011;5304;48.604;2.096;2023-12-20T20:15:04;3.23;;;2.30;;
10511;SDS011;5304;48.604;2.096;2023-12-20T20:17:49;6.57;;;2.70;;
10511;SDS011;5304;48.604;2.096;2023-12-20T20:20:33;7.70;;;3.00;;
10511;SDS011;5304;48.604;2.096;2023-12-20T20:23:18;5.03;;;2.67;;
10511;SDS011;5304;48.604;2.096;2023-12-20T20:26:02;8.30;;;3.43;;
10511;SDS011;5304;48.604;2.096;2023-12-20T20:28:48;7.97;;;2.90;;
10511;SDS011;5304;48.604;2.096;2023-12-20T20:31:32;6.53;;;3.13;;
10511;SDS011;5304;48.604;2.096;2023-12-20T20:34:18;7.67;;;2.80;;
10511;SDS011;5304;48.604;2.096;2023-12-20T20:37:04;6.93;;;3.20;;
10511;SDS011;5304;48.604;2.096;2023-12-20T20:39:49;4.40;;;2.83;;
10511;SDS011;5304;48.604;2.096;2023-12-20T20:42:34;8.47;;;3.10;;
10511;SDS011;5304;48.604;2.096;2023-12-20T20:45:18;10.70;;;3.27;;
10511;SDS011;5304;48.604;2.096;2023-12-20T20:48:02;8.13;;;3.57;;
10511;SDS011;5304;48.604;2.096;2023-12-20T20:50:46;10.10;;;3.93;;
10511;SDS011;5304;48.604;2.096;2023-12-20T20:53:31;8.30;;;3.60;;
10511;SDS011;5304;48.604;2.096;2023-12-20T20:56:15;6.63;;;3.37;;
10511;SDS011;5304;48.604;2.096;2023-12-20T20:59:00;10.70;;;3.30;;
10511;SDS011;5304;48.604;2.096;2023-12-20T21:01:44;10.30;;;3.53;;
10511;SDS011;5304;48.604;2.096;2023-12-20T21:04:29;13.47;;;4.80;;
10511;SDS011;5304;48.604;2.096;2023-12-20T21:07:13;6.67;;;3.33;;
10511;SDS011;5304;48.604;2.096;2023-12-20T21:09:58;6.70;;;3.53;;
10511;SDS011;5304;48.604;2.096;2023-12-20T21:12:43;7.40;;;3.60;;
10511;SDS011;5304;48.604;2.096;2023-12-20T21:15:27;7.10;;;2.87;;
10511;SDS011;5304;48.604;2.096;2023-12-20T21:18:12;9.17;;;3.30;;
10511;SDS011;5304;48.604;2.096;2023-12-20T21:20:56;10.90;;;3.43;;